RJCWRJCM

Guest
Details From RJCW - WAKKANAI
To RJCM - MEMANBETSU
Flight Number -
Tags generated
Created
Modified
Stats Distance 136 nm / 252 km
Max Altitude 11,000 ft / 3,353 m
Waypoints 5
Social Downloads 2
Likes 0
Share VATSIM

Download

Looking for another format? Having issues loading an existing format? Contact us
Advertisement - Login to hide

Notes

Basic altitude profile: - Ascent Rate: 2500ft/min - Ascent Speed: 250kts - Cruise Altitude: 35000ft - Cruise Speed: 420kts - Descent Rate: 1500ft/min - Descent Speed: 250kts Options: - Use NATs: yes - Use PACOTS: yes - Use low airways: yes - Use high airways: yes

Route

RJCW SAKIN V3 QURIO RJCM

ID Type Via Altitude Latitude Longitude Leg Dist Tot Dist Heading (true) Name
O RJCW APT - 0 ft / 0 m 45.40411˚ 141.80093˚ - 0 nm - WAKKANAI
SAKIN FIX - 9,600 ft / 2,926 m 45.07384˚ 142.32819˚ 29 nm 29 nm 131° / 132° -
TBE03 FIX V3 (AWY-LO) 11,000 ft / 3,353 m 44.21762˚ 143.64863˚ 76 nm 106 nm 132° / 133° -
QURIO FIX V3 (AWY-LO) 4,000 ft / 1,219 m 44.03043˚ 143.94319˚ 16 nm 123 nm 131° / 132° -
O RJCM APT - 0 ft / 0 m 43.88061˚ 144.16405˚ 13 nm 136 nm 133° / 133° MEMANBETSU

Altitude Profile

Advertisement - Login to hide

RJCW

Details ICAO RJCW (WKJ)
Name WAKKANAI
Region Japan
Timezone Asia/Tokyo (UTC+9.0)
Stats Elevation 30 ft / 9 m (AMSL)
Location 45.404111° 141.800926°
Runways 1
Magnetic Variation 10.147° W

METAR

RJCW 140200Z 06008KT 9999 FEW020 BKN035 M00/M04 Q1019

Decode

TAF

Not found

Departure Runways

ID Width Length Bearing (true) Bearing (mag) Surface Threshold Offset Overrun Length
08 150 ft / 46 m 6,548 ft / 1,996 m 68.83° 78.98° Asphalt 0 ft / 0 m 200 ft / 61 m
26 150 ft / 46 m 6,548 ft / 1,996 m 248.85° 259.00° Asphalt 0 ft / 0 m 200 ft / 61 m

RJCM

Details ICAO RJCM (MMB)
Name MEMANBETSU
Region Japan
Timezone Asia/Tokyo (UTC+9.0)
Stats Elevation 135 ft / 41 m (AMSL)
Location 43.880606° 144.164053°
Runways 1
Magnetic Variation 9.205° W

METAR

RJCM 140200Z 35015KT 9999 -SHSN FEW020 BKN050 01/M04 Q1016

Decode

TAF

TAF RJCM 132313Z 1400/1506 36013KT 9999 FEW010 BKN025 TEMPO 1409/1415 3000 -SHSN BECMG 1410/1412 21007KT BECMG 1503/1506 33007KT

Decode

Destination Runways

ID Width Length Bearing (true) Bearing (mag) Surface Threshold Offset Overrun Length
18 150 ft / 46 m 8,211 ft / 2,503 m 174.68° 183.88° Asphalt 0 ft / 0 m 197 ft / 60 m
36 150 ft / 46 m 8,211 ft / 2,503 m 354.68° 3.88° Asphalt 0 ft / 0 m 197 ft / 60 m

Approach Navaids

Runway Type Ident Frequency Range Bearing (true) Bearing (mag) Slope Elevation
18 Localiser ITB 110.10 MHz 18 nm / 33 km 174.68° 183.89° - 132 ft / 40 m (AMSL)
18 Glidescope ITB 110.10 MHz 10 nm / 19 km 174.68° 183.89° 3.00° 135 ft / 41 m (AMSL)